createdAt,value
2023-03-05T00:00:29.822Z,52.70
2023-03-05T00:02:57.423Z,52.90
2023-03-05T00:05:31.179Z,52.80
2023-03-05T00:07:59.164Z,52.80
2023-03-05T00:10:27.237Z,53.00
2023-03-05T00:12:56.078Z,52.60
2023-03-05T00:15:24.137Z,52.70
2023-03-05T00:17:51.238Z,52.90
2023-03-05T00:20:19.107Z,52.70
2023-03-05T00:22:46.717Z,52.70
2023-03-05T00:25:14.811Z,52.80
2023-03-05T00:27:43.488Z,52.70
2023-03-05T00:30:11.655Z,53.00
2023-03-05T00:32:38.988Z,52.80
2023-03-05T00:35:06.979Z,52.70
2023-03-05T00:37:34.390Z,52.90
2023-03-05T00:40:02.047Z,52.60
2023-03-05T00:42:33.853Z,52.80
2023-03-05T00:45:01.791Z,52.90
2023-03-05T00:47:30.138Z,52.70
2023-03-05T00:49:58.964Z,52.80
2023-03-05T00:52:29.261Z,52.60
2023-03-05T00:55:00.122Z,52.80
2023-03-05T00:57:34.057Z,53.40
2023-03-05T01:00:02.714Z,52.70
2023-03-05T01:02:39.595Z,53.00
2023-03-05T01:05:10.322Z,52.90
2023-03-05T01:07:41.281Z,52.70
2023-03-05T01:10:10.633Z,52.90
2023-03-05T01:12:39.900Z,52.60
2023-03-05T01:15:08.498Z,52.80
2023-03-05T01:17:37.365Z,52.90
2023-03-05T01:20:05.345Z,52.60
2023-03-05T01:22:34.020Z,53.00
2023-03-05T01:25:02.181Z,52.90
2023-03-05T01:27:31.339Z,52.60
2023-03-05T01:29:59.467Z,53.00
2023-03-05T01:32:28.737Z,52.60
2023-03-05T01:34:56.773Z,52.70
2023-03-05T01:37:25.984Z,52.80
2023-03-05T01:39:55.228Z,52.70
2023-03-05T01:42:24.972Z,52.80
2023-03-05T01:45:11.456Z,52.50
2023-03-05T01:47:43.145Z,52.60
2023-03-05T01:50:21.848Z,52.90
2023-03-05T01:52:58.009Z,52.60
2023-03-05T01:55:29.602Z,52.80
2023-03-05T01:58:10.815Z,52.50
2023-03-05T02:00:47.127Z,52.50
2023-03-05T02:03:14.805Z,52.80
2023-03-05T02:05:45.206Z,52.40
2023-03-05T02:08:17.177Z,52.60
2023-03-05T02:10:57.263Z,52.70
2023-03-05T02:13:26.605Z,52.60
2023-03-05T02:15:55.403Z,52.70
2023-03-05T02:18:26.937Z,52.60
2023-03-05T02:20:58.700Z,52.60
2023-03-05T02:23:31.725Z,52.50
2023-03-05T02:25:59.468Z,52.60
2023-03-05T02:28:33.347Z,52.70
2023-03-05T02:31:10.785Z,52.60
2023-03-05T02:33:40.227Z,52.50
2023-03-05T02:36:08.243Z,52.60
2023-03-05T02:38:36.656Z,52.50
2023-03-05T02:41:05.004Z,52.80
2023-03-05T02:47:00.862Z,52.50
2023-03-05T02:49:28.772Z,52.60
2023-03-05T02:51:56.812Z,52.70
2023-03-05T02:54:25.889Z,52.80
2023-03-05T02:56:53.611Z,52.50
2023-03-05T02:59:26.028Z,52.60
2023-03-05T03:01:58.339Z,52.70
2023-03-05T03:04:32.864Z,52.50
2023-03-05T03:07:00.911Z,52.50
2023-03-05T03:09:28.845Z,52.50
2023-03-05T03:11:56.925Z,52.30
2023-03-05T03:14:26.288Z,52.50
2023-03-05T03:16:57.113Z,52.30
2023-03-05T03:19:25.452Z,52.50
2023-03-05T03:21:55.568Z,52.50
2023-03-05T03:24:23.551Z,52.30
2023-03-05T03:26:53.190Z,53.30
2023-03-05T03:29:26.512Z,52.60
2023-03-05T03:31:57.827Z,52.40
2023-03-05T03:34:26.623Z,52.60
2023-03-05T03:36:54.919Z,52.40
2023-03-05T03:39:22.977Z,52.30
2023-03-05T03:41:52.795Z,52.70
2023-03-05T03:44:21.714Z,52.30
2023-03-05T03:46:50.515Z,52.50
2023-03-05T03:49:20.101Z,52.50
2023-03-05T03:51:48.095Z,52.30
2023-03-05T03:54:17.089Z,52.60
2023-03-05T03:56:48.431Z,52.30
2023-03-05T03:59:22.308Z,52.30
2023-03-05T04:01:50.322Z,52.30
2023-03-05T04:04:18.170Z,52.30
2023-03-05T04:06:46.188Z,52.40
2023-03-05T04:09:14.024Z,52.30
2023-03-05T04:11:41.397Z,52.30
2023-03-05T04:14:10.194Z,52.40
2023-03-05T04:16:38.127Z,52.30
2023-03-05T04:19:06.577Z,52.30
2023-03-05T04:21:34.576Z,52.30
2023-03-05T04:24:03.124Z,52.30
2023-03-05T04:26:30.787Z,52.30
2023-03-05T04:29:06.513Z,52.40
2023-03-05T04:31:34.783Z,52.30
2023-03-05T04:34:03.741Z,52.30
2023-03-05T04:36:32.592Z,52.30
2023-03-05T04:39:00.147Z,52.30
2023-03-05T04:41:29.703Z,52.30
2023-03-05T04:43:57.793Z,52.30
2023-03-05T04:46:26.093Z,52.30
2023-03-05T04:48:55.348Z,52.30
2023-03-05T04:51:24.029Z,52.30
2023-03-05T04:53:52.341Z,52.30
2023-03-05T04:56:20.971Z,52.30
2023-03-05T04:58:48.856Z,52.30
2023-03-05T05:01:17.469Z,52.30
2023-03-05T05:03:45.615Z,52.20
2023-03-05T05:06:19.628Z,52.30
2023-03-05T05:08:48.030Z,52.30
2023-03-05T05:11:16.042Z,52.30
2023-03-05T05:13:44.752Z,52.30
2023-03-05T05:16:13.306Z,52.30
2023-03-05T05:18:42.139Z,52.30
2023-03-05T05:21:11.350Z,52.20
2023-03-05T05:23:39.143Z,52.30
2023-03-05T05:26:11.447Z,52.90
2023-03-05T05:28:39.375Z,52.20
2023-03-05T05:31:16.809Z,52.30
2023-03-05T05:33:48.691Z,52.20
2023-03-05T05:36:24.928Z,52.20
2023-03-05T05:38:53.455Z,52.20
2023-03-05T05:41:22.216Z,52.10
2023-03-05T05:43:54.453Z,52.30
2023-03-05T05:46:22.662Z,52.20
2023-03-05T05:48:51.372Z,52.20
2023-03-05T05:51:27.615Z,52.30
2023-03-05T05:53:55.380Z,52.20
2023-03-05T05:56:23.713Z,52.20
2023-03-05T05:58:53.260Z,52.30
2023-03-05T06:01:36.944Z,52.30
2023-03-05T06:04:05.326Z,52.30
2023-03-05T06:06:36.970Z,52.20
2023-03-05T06:09:05.619Z,52.30
2023-03-05T06:11:39.830Z,52.10
2023-03-05T06:14:09.610Z,52.20
2023-03-05T06:16:42.663Z,52.30
2023-03-05T06:19:14.550Z,52.10
2023-03-05T06:21:44.397Z,52.30
2023-03-05T06:24:12.917Z,52.10
2023-03-05T06:26:42.377Z,52.20
2023-03-05T06:29:10.955Z,52.00
2023-03-05T06:31:41.335Z,52.00
2023-03-05T06:34:11.812Z,52.10
2023-03-05T06:36:38.513Z,52.00
2023-03-05T06:39:05.597Z,52.10
2023-03-05T06:41:32.283Z,52.10
2023-03-05T06:43:59.467Z,52.30
2023-03-05T06:46:26.921Z,52.30
2023-03-05T06:48:55.036Z,52.30
2023-03-05T06:51:22.669Z,52.30
2023-03-05T06:53:49.742Z,51.90
2023-03-05T06:56:16.882Z,51.50
2023-03-05T06:58:44.205Z,52.30
2023-03-05T07:01:10.987Z,52.30
2023-03-05T07:03:37.704Z,52.30
2023-03-05T07:06:13.890Z,52.90
2023-03-05T07:08:40.613Z,52.30
2023-03-05T07:11:25.408Z,52.30
2023-03-05T07:13:52.188Z,52.30
2023-03-05T07:16:22.895Z,52.20
2023-03-05T07:18:49.641Z,52.20
2023-03-05T07:21:17.838Z,52.40
2023-03-05T07:23:48.092Z,52.30
2023-03-05T07:26:14.889Z,52.20
2023-03-05T07:28:41.692Z,52.30
2023-03-05T07:31:09.193Z,52.30
2023-03-05T07:33:37.305Z,52.30
2023-03-05T07:36:04.847Z,52.30
2023-03-05T07:38:31.975Z,52.30
2023-03-05T07:41:02.313Z,52.30
2023-03-05T07:43:29.029Z,52.30
2023-03-05T07:45:55.702Z,52.30
2023-03-05T07:48:22.469Z,52.30
2023-03-05T07:50:49.225Z,52.30
2023-03-05T07:53:16.053Z,52.30
2023-03-05T07:55:43.863Z,52.30
2023-03-05T07:58:10.715Z,52.30
2023-03-05T08:00:37.435Z,52.30
2023-03-05T08:03:05.445Z,52.30
2023-03-05T08:05:32.279Z,52.30
2023-03-05T08:07:59.947Z,52.30
2023-03-05T08:10:26.760Z,52.30
2023-03-05T08:12:53.727Z,52.30
2023-03-05T08:15:20.432Z,52.30
2023-03-05T08:17:47.245Z,52.30
2023-03-05T08:20:14.001Z,52.30
2023-03-05T08:22:40.666Z,52.30
2023-03-05T08:25:07.658Z,52.30
2023-03-05T08:27:34.366Z,52.30
2023-03-05T08:30:02.016Z,52.30
2023-03-05T08:32:28.783Z,52.30
2023-03-05T08:34:58.714Z,52.30
2023-03-05T08:37:25.688Z,52.30
2023-03-05T08:39:52.677Z,52.30
2023-03-05T08:42:19.380Z,52.20
2023-03-05T08:44:46.077Z,52.20
2023-03-05T08:47:12.762Z,52.20
2023-03-05T08:49:39.814Z,52.20
2023-03-05T08:52:06.654Z,52.20
2023-03-05T08:54:33.822Z,52.10
2023-03-05T08:57:00.501Z,52.10
2023-03-05T08:59:27.272Z,52.00
2023-03-05T09:02:00.748Z,52.00
2023-03-05T09:04:27.518Z,52.00
2023-03-05T09:06:54.175Z,51.90
2023-03-05T09:09:23.024Z,52.00
2023-03-05T09:11:51.828Z,52.00
2023-03-05T09:14:18.758Z,52.00
2023-03-05T09:16:45.915Z,52.00
2023-03-05T09:19:15.311Z,51.90
2023-03-05T09:21:42.524Z,52.10
2023-03-05T09:24:09.256Z,52.10
2023-03-05T09:26:36.006Z,52.00
2023-03-05T09:29:07.587Z,52.00
2023-03-05T09:31:36.787Z,51.90
2023-03-05T09:34:04.034Z,52.00
2023-03-05T09:36:30.835Z,51.90
2023-03-05T09:38:57.622Z,52.00
2023-03-05T09:41:27.372Z,52.00
2023-03-05T09:44:00.224Z,51.60
2023-03-05T09:46:44.888Z,51.30
2023-03-05T09:49:16.243Z,52.40
2023-03-05T09:51:43.079Z,51.80
2023-03-05T09:54:11.739Z,51.70
2023-03-05T09:56:40.159Z,52.20
2023-03-05T09:59:09.912Z,52.40
2023-03-05T10:01:38.975Z,52.30
2023-03-05T10:04:26.166Z,52.30
2023-03-05T10:06:52.983Z,52.30
2023-03-05T10:09:22.782Z,52.30
2023-03-05T10:11:49.547Z,52.30
2023-03-05T10:14:20.438Z,52.30
2023-03-05T10:16:47.262Z,52.30
2023-03-05T10:19:32.799Z,52.30
2023-03-05T10:22:08.661Z,52.40
2023-03-05T10:24:44.588Z,52.30
2023-03-05T10:27:21.085Z,52.30
2023-03-05T10:29:52.222Z,52.30
2023-03-05T10:32:19.119Z,52.30
2023-03-05T10:35:12.260Z,48.90
2023-03-05T10:38:02.218Z,50.50
2023-03-05T10:40:44.983Z,52.00
2023-03-05T10:43:31.427Z,52.10
2023-03-05T10:45:58.703Z,52.30
2023-03-05T10:48:29.252Z,52.20
2023-03-05T10:51:11.761Z,52.20
2023-03-05T10:53:42.565Z,52.30
2023-03-05T10:56:10.667Z,52.30
2023-03-05T10:58:38.793Z,52.30
2023-03-05T11:01:11.578Z,52.20
2023-03-05T11:03:58.510Z,52.30
2023-03-05T11:06:39.572Z,52.30
2023-03-05T11:09:16.789Z,52.30
2023-03-05T11:11:45.029Z,52.30
2023-03-05T11:14:23.060Z,52.30
2023-03-05T11:16:50.932Z,52.30
2023-03-05T11:19:22.137Z,52.30
2023-03-05T11:22:22.044Z,52.40
2023-03-05T11:25:07.941Z,52.30
2023-03-05T11:27:54.575Z,52.70
2023-03-05T11:30:22.682Z,52.50
2023-03-05T11:32:49.673Z,52.50
2023-03-05T11:35:33.171Z,52.70
2023-03-05T11:38:01.019Z,52.80
2023-03-05T11:40:28.658Z,52.60
2023-03-05T11:42:59.880Z,52.70
2023-03-05T11:45:26.844Z,52.90
2023-03-05T11:47:54.691Z,52.80
2023-03-05T11:50:28.503Z,52.80
2023-03-05T11:52:59.169Z,53.00
2023-03-05T11:55:30.498Z,52.90
2023-03-05T11:58:01.416Z,53.10
2023-03-05T12:00:28.663Z,53.10
2023-03-05T12:02:55.821Z,53.00
2023-03-05T12:05:22.832Z,53.00
2023-03-05T12:07:51.710Z,53.10
2023-03-05T12:10:22.523Z,53.20
2023-03-05T12:13:04.988Z,53.10
2023-03-05T12:15:50.826Z,53.30
2023-03-05T12:18:33.249Z,53.10
2023-03-05T12:21:07.523Z,52.40
2023-03-05T12:23:47.686Z,52.80
2023-03-05T12:26:14.476Z,53.00
2023-03-05T12:28:41.763Z,53.10
2023-03-05T12:31:08.786Z,53.00
2023-03-05T12:33:38.643Z,52.90
2023-03-05T12:36:17.718Z,45.70
2023-03-05T12:38:46.394Z,46.50
2023-03-05T12:41:22.778Z,48.90
2023-03-05T12:44:08.249Z,50.80
2023-03-05T12:46:38.101Z,51.40
2023-03-05T12:49:20.557Z,52.20
2023-03-05T12:51:48.068Z,51.90
2023-03-05T12:54:36.146Z,51.90
2023-03-05T12:57:07.220Z,52.00
2023-03-05T12:59:44.163Z,51.90
2023-03-05T13:02:20.841Z,51.90
2023-03-05T13:04:47.609Z,52.00
2023-03-05T13:07:15.969Z,51.80
2023-03-05T13:09:51.284Z,51.90
2023-03-05T13:12:18.416Z,51.90
2023-03-05T13:14:46.560Z,51.90
2023-03-05T13:17:32.354Z,52.00
2023-03-05T13:20:26.243Z,51.80
2023-03-05T13:23:07.743Z,52.00
2023-03-05T13:25:34.742Z,52.00
2023-03-05T13:28:05.092Z,52.10
2023-03-05T13:30:50.629Z,51.90
2023-03-05T13:33:18.210Z,51.90
2023-03-05T13:35:45.649Z,52.00
2023-03-05T13:38:21.255Z,51.90
2023-03-05T13:41:00.683Z,52.00
2023-03-05T13:43:27.512Z,51.90
2023-03-05T13:45:56.729Z,52.00
2023-03-05T13:48:24.033Z,51.90
2023-03-05T13:50:57.464Z,51.90
2023-03-05T13:53:25.505Z,51.80
2023-03-05T13:55:53.747Z,51.90
2023-03-05T13:58:39.344Z,51.90
2023-03-05T14:01:19.315Z,51.70
2023-03-05T14:03:49.053Z,51.90
2023-03-05T14:06:15.778Z,51.70
2023-03-05T14:08:46.983Z,52.40
2023-03-05T14:11:15.341Z,51.70
2023-03-05T14:13:43.285Z,51.70
2023-03-05T14:16:10.425Z,51.80
2023-03-05T14:19:16.614Z,51.60
2023-03-05T14:21:45.712Z,51.60
2023-03-05T14:24:13.837Z,51.60
2023-03-05T14:26:41.593Z,51.80
2023-03-05T14:29:11.738Z,51.60
2023-03-05T14:31:58.788Z,51.60
2023-03-05T14:34:30.502Z,51.70
2023-03-05T14:36:59.378Z,51.60
2023-03-05T14:39:27.353Z,51.70
2023-03-05T14:41:54.604Z,51.60
2023-03-05T14:44:25.731Z,52.30
2023-03-05T14:46:53.493Z,51.90
2023-03-05T14:49:21.566Z,51.70
2023-03-05T14:51:50.758Z,51.60
2023-03-05T14:54:26.763Z,51.70
2023-03-05T14:56:55.932Z,51.80
2023-03-05T14:59:23.797Z,51.70
2023-03-05T15:01:52.383Z,51.80
2023-03-05T15:04:21.284Z,51.70
2023-03-05T15:06:51.804Z,51.70
2023-03-05T15:09:20.523Z,51.70
2023-03-05T15:11:48.604Z,51.20
2023-03-05T15:14:15.983Z,51.20
2023-03-05T15:16:43.797Z,51.50
2023-03-05T15:19:15.118Z,51.50
2023-03-05T15:21:43.944Z,51.40
2023-03-05T15:24:11.549Z,51.30
2023-03-05T15:26:39.977Z,50.50
2023-03-05T15:29:08.199Z,51.30
2023-03-05T15:31:39.025Z,51.50
2023-03-05T15:34:08.668Z,51.30
2023-03-05T15:36:36.435Z,51.30
2023-03-05T15:39:10.025Z,51.30
2023-03-05T15:41:37.482Z,51.30
2023-03-05T15:44:05.476Z,51.30
2023-03-05T15:46:33.649Z,51.40
2023-03-05T15:49:01.393Z,51.30
2023-03-05T15:51:29.409Z,51.30
2023-03-05T15:53:58.185Z,51.30
2023-03-05T15:56:26.677Z,51.30
2023-03-05T15:58:54.013Z,51.30
2023-03-05T16:01:21.061Z,51.30
2023-03-05T16:03:48.810Z,51.30
2023-03-05T16:06:20.786Z,51.20
2023-03-05T16:08:51.972Z,51.30
2023-03-05T16:11:26.470Z,51.30
2023-03-05T16:13:53.420Z,51.10
2023-03-05T16:16:22.005Z,51.30
2023-03-05T16:18:49.530Z,51.40
2023-03-05T16:21:20.763Z,49.80
2023-03-05T16:23:50.200Z,50.00
2023-03-05T16:26:19.510Z,51.10
2023-03-05T16:28:47.552Z,51.00
2023-03-05T16:31:15.117Z,51.00
2023-03-05T16:33:43.364Z,51.10
2023-03-05T16:36:30.505Z,51.10
2023-03-05T16:38:59.060Z,50.80
2023-03-05T16:41:26.505Z,51.00
2023-03-05T16:43:54.649Z,50.90
2023-03-05T16:46:28.744Z,50.90
2023-03-05T16:48:56.722Z,51.00
2023-03-05T16:51:48.280Z,51.00
2023-03-05T16:54:16.211Z,50.90
2023-03-05T16:56:45.152Z,51.00
2023-03-05T16:59:13.252Z,50.80
2023-03-05T17:01:41.662Z,50.90
2023-03-05T17:04:09.538Z,50.90
2023-03-05T17:06:38.196Z,50.90
2023-03-05T17:09:06.011Z,50.90
2023-03-05T17:11:35.405Z,51.00
2023-03-05T17:14:04.976Z,51.00
2023-03-05T17:16:34.656Z,50.90
2023-03-05T17:19:02.723Z,50.70
2023-03-05T17:21:31.275Z,51.00
2023-03-05T17:23:59.291Z,50.80
2023-03-05T17:26:29.321Z,50.70
2023-03-05T17:28:58.462Z,50.90
2023-03-05T17:31:27.476Z,50.80
2023-03-05T17:34:02.040Z,50.80
2023-03-05T17:36:31.848Z,50.90
2023-03-05T17:38:59.780Z,50.80
2023-03-05T17:41:30.767Z,50.80
2023-03-05T17:43:59.473Z,50.70
2023-03-05T17:46:27.537Z,50.90
2023-03-05T17:48:55.919Z,50.70
2023-03-05T17:51:33.029Z,50.90
2023-03-05T17:54:02.022Z,50.90
2023-03-05T17:56:31.386Z,50.80
2023-03-05T17:58:59.839Z,51.00
2023-03-05T18:01:29.678Z,50.90
2023-03-05T18:03:57.193Z,51.40
2023-03-05T18:06:24.754Z,50.70
2023-03-05T18:08:53.084Z,51.00
2023-03-05T18:11:25.671Z,50.70
2023-03-05T18:13:54.565Z,50.90
2023-03-05T18:16:25.402Z,51.30
2023-03-05T18:18:56.457Z,51.30
2023-03-05T18:21:27.780Z,51.30
2023-03-05T18:23:56.255Z,51.30
2023-03-05T18:26:31.763Z,51.10
2023-03-05T18:29:00.793Z,51.20
2023-03-05T18:31:32.778Z,51.20
2023-03-05T18:34:03.057Z,51.40
2023-03-05T18:36:33.925Z,51.10
2023-03-05T18:39:16.977Z,51.30
2023-03-05T18:41:49.377Z,51.10
2023-03-05T18:44:20.388Z,51.00
2023-03-05T18:46:48.566Z,51.10
2023-03-05T18:49:16.908Z,51.30
2023-03-05T18:51:46.498Z,51.20
2023-03-05T18:54:14.363Z,51.00
2023-03-05T18:56:45.752Z,51.30
2023-03-05T18:59:14.951Z,51.20
2023-03-05T19:01:45.804Z,51.10
2023-03-05T19:04:13.605Z,51.20
2023-03-05T19:06:40.983Z,51.00
2023-03-05T19:09:17.536Z,51.00
2023-03-05T19:11:51.675Z,51.10
2023-03-05T19:14:19.498Z,51.10
2023-03-05T19:16:47.074Z,51.00
2023-03-05T19:19:22.833Z,51.00
2023-03-05T19:21:53.984Z,51.10
2023-03-05T19:24:22.683Z,51.00
2023-03-05T19:26:56.035Z,51.20
2023-03-05T19:29:25.416Z,51.10
2023-03-05T19:31:53.706Z,51.20
2023-03-05T19:34:23.312Z,51.10
2023-03-05T19:37:03.273Z,51.10
2023-03-05T19:39:31.530Z,51.10
2023-03-05T19:41:59.594Z,51.10
2023-03-05T19:44:28.527Z,51.00
2023-03-05T19:46:57.985Z,50.90
2023-03-05T19:49:26.693Z,51.00
2023-03-05T19:51:55.143Z,51.10
2023-03-05T19:54:24.073Z,50.90
2023-03-05T19:56:55.071Z,51.00
2023-03-05T19:59:23.540Z,50.90
2023-03-05T20:01:52.459Z,50.90
2023-03-05T20:04:23.185Z,50.90
2023-03-05T20:06:51.969Z,51.00
2023-03-05T20:09:34.744Z,51.00
2023-03-05T20:12:08.498Z,51.00
2023-03-05T20:14:37.742Z,51.00
2023-03-05T20:17:11.989Z,51.10
2023-03-05T20:19:40.960Z,51.00
2023-03-05T20:22:10.654Z,51.10
2023-03-05T20:24:49.955Z,51.00
2023-03-05T20:27:18.924Z,51.10
2023-03-05T20:29:47.509Z,51.00
2023-03-05T20:32:17.728Z,51.00
2023-03-05T20:34:53.490Z,51.10
2023-03-05T20:37:22.711Z,51.00
2023-03-05T20:39:54.746Z,50.90
2023-03-05T20:42:24.852Z,50.70
2023-03-05T20:44:55.059Z,50.70
2023-03-05T20:47:41.932Z,50.70
2023-03-05T20:50:13.839Z,50.70
2023-03-05T20:52:43.127Z,50.70
2023-03-05T20:55:11.760Z,50.80
2023-03-05T20:57:41.056Z,50.80
2023-03-05T21:00:16.299Z,50.70
2023-03-05T21:02:46.035Z,50.70
2023-03-05T21:05:15.843Z,50.70
2023-03-05T21:07:45.949Z,50.70
2023-03-05T21:10:36.932Z,50.70
2023-03-05T21:13:06.917Z,50.70
2023-03-05T21:15:35.074Z,50.70
2023-03-05T21:18:08.878Z,50.70
2023-03-05T21:20:37.442Z,50.70
2023-03-05T21:23:06.953Z,50.70
2023-03-05T21:25:35.918Z,50.70
2023-03-05T21:28:08.998Z,50.70
2023-03-05T21:30:38.476Z,50.50
2023-03-05T21:33:11.215Z,50.70
2023-03-05T21:35:40.199Z,50.50
2023-03-05T21:38:09.449Z,50.50
2023-03-05T21:40:41.510Z,50.70
2023-03-05T21:43:17.032Z,50.50
2023-03-05T21:45:53.949Z,50.50
2023-03-05T21:48:20.891Z,50.50
2023-03-05T21:50:47.679Z,50.40
2023-03-05T21:53:14.681Z,50.40
2023-03-05T21:56:07.729Z,50.40
2023-03-05T21:58:34.655Z,50.50
2023-03-05T22:01:01.414Z,50.40
2023-03-05T22:03:28.436Z,50.40
2023-03-05T22:05:55.285Z,50.40
2023-03-05T22:08:22.213Z,50.30
2023-03-05T22:10:49.004Z,50.40
2023-03-05T22:13:17.752Z,50.20
2023-03-05T22:15:45.312Z,50.30
2023-03-05T22:18:13.015Z,50.20
2023-03-05T22:20:39.862Z,50.20
2023-03-05T22:23:06.818Z,50.30
2023-03-05T22:25:33.761Z,50.10
2023-03-05T22:28:00.489Z,50.30
2023-03-05T22:30:27.449Z,50.30
2023-03-05T22:32:54.172Z,50.20
2023-03-05T22:35:21.035Z,50.20
2023-03-05T22:37:47.875Z,50.20
2023-03-05T22:40:15.527Z,50.20
2023-03-05T22:42:42.538Z,50.30
2023-03-05T22:45:09.405Z,50.30
2023-03-05T22:47:36.239Z,50.40
2023-03-05T22:50:02.972Z,50.30
2023-03-05T22:52:29.770Z,50.40
2023-03-05T22:54:56.451Z,50.40
2023-03-05T22:57:23.237Z,50.40
2023-03-05T22:59:49.941Z,50.30
2023-03-05T23:02:17.219Z,50.30
2023-03-05T23:04:49.971Z,50.30
2023-03-05T23:07:17.312Z,50.20
2023-03-05T23:10:10.392Z,50.20
2023-03-05T23:12:38.601Z,50.20
2023-03-05T23:15:06.467Z,50.20
2023-03-05T23:17:33.267Z,50.20
2023-03-05T23:19:59.933Z,50.20
2023-03-05T23:22:26.732Z,50.30
2023-03-05T23:24:53.452Z,50.20
2023-03-05T23:27:20.207Z,50.20
2023-03-05T23:30:08.980Z,50.20
2023-03-05T23:32:36.096Z,50.30
2023-03-05T23:35:02.950Z,50.30
2023-03-05T23:37:29.732Z,50.30
2023-03-05T23:39:56.384Z,50.30
2023-03-05T23:42:23.347Z,50.30
2023-03-05T23:44:50.121Z,50.30
2023-03-05T23:47:16.872Z,50.20
2023-03-05T23:49:43.589Z,50.20
2023-03-05T23:52:10.333Z,50.20
2023-03-05T23:54:37.055Z,50.20
2023-03-05T23:57:03.849Z,50.20
2023-03-05T23:59:30.490Z,50.10
